createdAt,value
2023-09-14T00:01:16.369Z,100.00
2023-09-14T00:03:45.539Z,100.00
2023-09-14T00:06:13.636Z,100.00
2023-09-14T00:08:40.201Z,100.00
2023-09-14T00:11:06.723Z,100.00
2023-09-14T00:13:38.536Z,99.88
2023-09-14T00:16:05.452Z,100.00
2023-09-14T00:18:34.968Z,100.00
2023-09-14T00:21:01.796Z,100.00
2023-09-14T00:23:30.805Z,100.00
2023-09-14T00:25:57.355Z,100.00
2023-09-14T00:28:28.994Z,100.00
2023-09-14T00:30:55.737Z,100.00
2023-09-14T00:33:24.638Z,100.00
2023-09-14T00:35:53.489Z,100.00
2023-09-14T00:38:27.434Z,100.00
2023-09-14T00:40:57.011Z,100.00
2023-09-14T00:43:23.759Z,100.00
2023-09-14T00:45:53.456Z,100.00
2023-09-14T00:48:25.568Z,100.00
2023-09-14T00:50:55.872Z,100.00
2023-09-14T00:53:25.160Z,100.00
2023-09-14T00:55:52.339Z,100.00
2023-09-14T00:58:23.942Z,100.00
2023-09-14T01:00:52.955Z,100.00
2023-09-14T01:03:21.919Z,100.00
2023-09-14T01:05:51.070Z,100.00
2023-09-14T01:08:18.339Z,100.00
2023-09-14T01:10:49.721Z,100.00
2023-09-14T01:13:38.626Z,100.00
2023-09-14T01:16:16.297Z,100.00
2023-09-14T01:19:22.993Z,100.00
2023-09-14T01:22:14.388Z,100.00
2023-09-14T01:25:21.818Z,100.00
2023-09-14T01:27:48.453Z,100.00
2023-09-14T01:30:18.509Z,100.00
2023-09-14T01:32:45.121Z,100.00
2023-09-14T01:35:13.925Z,100.00
2023-09-14T01:37:40.790Z,100.00
2023-09-14T01:40:10.723Z,100.00
2023-09-14T01:42:43.507Z,100.00
2023-09-14T01:45:11.862Z,100.00
2023-09-14T01:47:41.057Z,100.00
2023-09-14T01:50:08.326Z,100.00
2023-09-14T01:52:34.981Z,100.00
2023-09-14T01:55:01.498Z,100.00
2023-09-14T01:57:28.101Z,100.00
2023-09-14T01:59:59.753Z,100.00
2023-09-14T02:02:28.053Z,100.00
2023-09-14T02:04:55.995Z,100.00
2023-09-14T02:07:22.519Z,100.00
2023-09-14T02:09:49.288Z,100.00
2023-09-14T02:12:15.800Z,100.00
2023-09-14T02:14:42.450Z,100.00
2023-09-14T02:17:16.773Z,100.00
2023-09-14T02:19:43.430Z,100.00
2023-09-14T02:22:10.199Z,100.00
2023-09-14T02:24:39.775Z,100.00
2023-09-14T02:27:06.464Z,100.00
2023-09-14T02:29:35.487Z,100.00
2023-09-14T02:32:01.980Z,100.00
2023-09-14T02:34:33.180Z,100.00
2023-09-14T02:36:59.794Z,100.00
2023-09-14T02:39:28.989Z,100.00
2023-09-14T02:41:57.810Z,100.00
2023-09-14T02:44:25.335Z,100.00
2023-09-14T02:46:53.670Z,100.00
2023-09-14T02:49:20.282Z,100.00
2023-09-14T02:51:50.967Z,100.00
2023-09-14T02:54:17.542Z,100.00
2023-09-14T02:56:48.754Z,100.00
2023-09-14T02:59:19.114Z,100.00
2023-09-14T03:01:45.758Z,100.00
2023-09-14T03:04:17.148Z,100.00
2023-09-14T03:06:47.068Z,100.00
2023-09-14T03:09:13.592Z,100.00
2023-09-14T03:11:41.870Z,100.00
2023-09-14T03:14:11.754Z,100.00
2023-09-14T03:16:43.304Z,100.00
2023-09-14T03:19:12.449Z,100.00
2023-09-14T03:21:41.345Z,100.00
2023-09-14T03:24:07.968Z,100.00
2023-09-14T03:26:38.036Z,100.00
2023-09-14T03:29:08.383Z,100.00
2023-09-14T03:31:37.353Z,100.00
2023-09-14T03:34:06.228Z,100.00
2023-09-14T03:36:33.610Z,100.00
2023-09-14T03:39:02.520Z,100.00
2023-09-14T03:41:33.859Z,100.00
2023-09-14T03:44:00.322Z,100.00
2023-09-14T03:46:29.341Z,100.00
2023-09-14T03:48:58.697Z,100.00
2023-09-14T03:51:25.645Z,100.00
2023-09-14T03:53:54.370Z,100.00
2023-09-14T03:56:21.056Z,100.00
2023-09-14T03:58:48.640Z,100.00
2023-09-14T04:01:18.319Z,100.00
2023-09-14T04:03:47.338Z,100.00
2023-09-14T04:06:17.818Z,100.00
2023-09-14T04:08:47.104Z,99.87
2023-09-14T04:11:15.145Z,99.99
2023-09-14T04:13:41.677Z,99.98
2023-09-14T04:16:14.136Z,99.67
2023-09-14T04:18:43.122Z,99.59
2023-09-14T04:21:10.218Z,99.68
2023-09-14T04:23:36.846Z,99.84
2023-09-14T04:26:08.227Z,99.93
2023-09-14T04:28:34.739Z,100.00
2023-09-14T04:31:06.159Z,99.68
2023-09-14T04:33:36.475Z,99.79
2023-09-14T04:36:08.953Z,99.87
2023-09-14T04:38:35.485Z,99.93
2023-09-14T04:41:06.086Z,100.00
2023-09-14T04:43:33.772Z,100.00
2023-09-14T04:46:02.622Z,100.00
2023-09-14T04:48:31.657Z,100.00
2023-09-14T04:51:01.350Z,100.00
2023-09-14T04:53:30.635Z,100.00
2023-09-14T04:55:57.865Z,100.00
2023-09-14T04:58:26.704Z,100.00
2023-09-14T05:00:54.383Z,100.00
2023-09-14T05:03:26.350Z,100.00
2023-09-14T05:05:54.897Z,100.00
2023-09-14T05:08:22.821Z,100.00
2023-09-14T05:10:53.261Z,100.00
2023-09-14T05:13:22.190Z,100.00
2023-09-14T05:15:49.415Z,100.00
2023-09-14T05:18:16.050Z,100.00
2023-09-14T05:20:48.443Z,100.00
2023-09-14T05:23:16.429Z,100.00
2023-09-14T05:25:46.763Z,100.00
2023-09-14T05:28:13.836Z,100.00
2023-09-14T05:30:40.758Z,100.00
2023-09-14T05:33:08.656Z,100.00
2023-09-14T05:35:40.535Z,100.00
2023-09-14T05:38:12.016Z,100.00
2023-09-14T05:40:38.532Z,100.00
2023-09-14T05:43:05.159Z,100.00
2023-09-14T05:45:34.733Z,100.00
2023-09-14T05:48:06.857Z,100.00
2023-09-14T05:50:36.800Z,100.00
2023-09-14T05:53:07.831Z,100.00
2023-09-14T05:55:42.025Z,100.00
2023-09-14T05:58:08.633Z,100.00
2023-09-14T06:00:35.412Z,99.86
2023-09-14T06:03:02.030Z,99.87
2023-09-14T06:05:31.200Z,99.75
2023-09-14T06:08:04.558Z,99.69
2023-09-14T06:10:31.103Z,98.88
2023-09-14T06:12:59.330Z,98.82
2023-09-14T06:15:33.654Z,99.06
2023-09-14T06:18:02.471Z,99.11
2023-09-14T06:20:30.462Z,99.17
2023-09-14T06:22:57.393Z,99.43
2023-09-14T06:25:25.667Z,99.49
2023-09-14T06:27:54.529Z,99.01
2023-09-14T06:30:21.271Z,98.86
2023-09-14T06:32:50.385Z,98.92
2023-09-14T06:35:17.509Z,99.12
2023-09-14T06:37:45.498Z,98.77
2023-09-14T06:40:15.872Z,98.68
2023-09-14T06:42:47.823Z,98.77
2023-09-14T06:45:14.419Z,98.52
2023-09-14T06:47:43.449Z,98.54
2023-09-14T06:50:10.262Z,98.60
2023-09-14T06:52:37.183Z,98.94
2023-09-14T06:55:04.180Z,98.51
2023-09-14T06:57:32.972Z,98.11
2023-09-14T07:00:02.598Z,98.22
2023-09-14T07:02:31.365Z,98.50
2023-09-14T07:05:00.544Z,98.43
2023-09-14T07:07:27.086Z,98.33
2023-09-14T07:09:53.670Z,98.15
2023-09-14T07:12:20.257Z,98.38
2023-09-14T07:14:46.894Z,98.18
2023-09-14T07:17:13.483Z,98.03
2023-09-14T07:19:40.004Z,97.76
2023-09-14T07:22:08.967Z,97.95
2023-09-14T07:24:37.980Z,98.08
2023-09-14T07:27:09.371Z,98.37
2023-09-14T07:29:36.608Z,98.75
2023-09-14T07:32:06.003Z,98.60
2023-09-14T07:34:35.161Z,98.41
2023-09-14T07:37:04.639Z,97.87
2023-09-14T07:39:31.964Z,97.57
2023-09-14T07:41:58.572Z,97.38
2023-09-14T07:44:25.069Z,96.63
2023-09-14T07:46:54.655Z,95.48
2023-09-14T07:49:24.283Z,92.59
2023-09-14T07:51:53.436Z,90.00
2023-09-14T07:54:24.446Z,87.57
2023-09-14T07:56:51.714Z,83.21
2023-09-14T07:59:18.273Z,80.80
2023-09-14T08:01:47.112Z,77.98
2023-09-14T08:04:13.835Z,78.25
2023-09-14T08:06:47.336Z,76.41
2023-09-14T08:09:14.364Z,74.25
2023-09-14T08:11:42.460Z,73.52
2023-09-14T08:14:11.348Z,73.17
2023-09-14T08:16:38.225Z,71.26
2023-09-14T08:19:04.959Z,72.55
2023-09-14T08:21:33.845Z,69.76
2023-09-14T08:24:00.336Z,67.05
2023-09-14T08:26:26.974Z,67.12
2023-09-14T08:28:53.566Z,65.34
2023-09-14T08:31:24.748Z,65.47
2023-09-14T08:33:56.284Z,65.10
2023-09-14T08:36:24.103Z,65.82
2023-09-14T08:38:53.488Z,66.53
2023-09-14T08:41:43.518Z,66.54
2023-09-14T08:44:16.433Z,65.80
2023-09-14T08:46:48.253Z,65.91
2023-09-14T08:49:20.292Z,64.83
2023-09-14T08:51:50.142Z,63.63
2023-09-14T08:54:19.347Z,64.39
2023-09-14T08:56:47.997Z,64.83
2023-09-14T08:59:17.530Z,64.24
2023-09-14T09:01:48.542Z,63.88
2023-09-14T09:04:16.011Z,63.76
2023-09-14T09:06:45.924Z,66.79
2023-09-14T09:09:20.860Z,66.73
2023-09-14T09:11:48.363Z,68.16
2023-09-14T09:14:16.565Z,70.12
2023-09-14T09:16:43.365Z,70.74
2023-09-14T09:19:11.845Z,72.07
2023-09-14T09:21:42.819Z,70.90
2023-09-14T09:24:16.111Z,72.53
2023-09-14T09:26:43.312Z,72.58
2023-09-14T09:29:23.995Z,73.35
2023-09-14T09:31:52.691Z,72.94
2023-09-14T09:34:34.508Z,74.36
2023-09-14T09:37:04.350Z,72.71
2023-09-14T09:39:36.246Z,72.69
2023-09-14T09:42:02.774Z,73.51
2023-09-14T09:44:35.984Z,73.56
2023-09-14T09:47:02.729Z,72.83
2023-09-14T09:49:32.930Z,71.50
2023-09-14T09:52:00.805Z,74.02
2023-09-14T09:54:36.569Z,73.27
2023-09-14T09:57:05.763Z,72.11
2023-09-14T09:59:33.084Z,73.50
2023-09-14T10:01:59.789Z,71.62
2023-09-14T10:04:30.250Z,70.78
2023-09-14T10:06:57.038Z,70.92
2023-09-14T10:09:33.252Z,70.56
2023-09-14T10:12:05.666Z,68.34
2023-09-14T10:14:47.708Z,70.13
2023-09-14T10:17:25.290Z,72.70
2023-09-14T10:19:52.498Z,72.89
2023-09-14T10:22:22.580Z,71.98
2023-09-14T10:24:51.184Z,69.00
2023-09-14T10:27:20.215Z,70.22
2023-09-14T10:29:48.787Z,69.71
2023-09-14T10:32:16.206Z,69.55
2023-09-14T10:35:04.941Z,72.02
2023-09-14T10:37:32.663Z,72.19
2023-09-14T10:40:00.506Z,70.27
2023-09-14T10:42:27.288Z,68.63
2023-09-14T10:44:54.110Z,68.93
2023-09-14T10:47:24.304Z,70.94
2023-09-14T10:49:51.615Z,70.46
2023-09-14T10:52:26.007Z,69.18
2023-09-14T10:54:53.009Z,70.92
2023-09-14T10:57:33.025Z,70.42
2023-09-14T11:00:13.825Z,71.99
2023-09-14T11:02:51.656Z,72.83
2023-09-14T11:05:21.725Z,68.24
2023-09-14T11:07:58.845Z,68.78
2023-09-14T11:10:31.233Z,68.94
2023-09-14T11:13:21.628Z,69.20
2023-09-14T11:15:55.887Z,68.31
2023-09-14T11:18:37.507Z,71.73
2023-09-14T11:21:08.240Z,71.96
2023-09-14T11:23:39.841Z,71.61
2023-09-14T11:26:19.364Z,71.25
2023-09-14T11:28:52.455Z,72.88
2023-09-14T11:31:57.342Z,73.81
2023-09-14T11:34:29.096Z,69.32
2023-09-14T11:37:03.595Z,69.45
2023-09-14T11:39:38.094Z,68.35
2023-09-14T11:42:09.924Z,64.79
2023-09-14T11:44:53.849Z,65.64
2023-09-14T11:47:34.583Z,65.50
2023-09-14T11:50:10.298Z,67.52
2023-09-14T11:52:40.212Z,67.15
2023-09-14T11:55:07.865Z,66.89
2023-09-14T11:57:35.151Z,67.32
2023-09-14T12:00:06.919Z,67.21
2023-09-14T12:02:38.072Z,69.33
2023-09-14T12:05:05.044Z,66.75
2023-09-14T12:07:34.891Z,65.66
2023-09-14T12:10:02.374Z,61.46
2023-09-14T12:12:31.050Z,55.32
2023-09-14T12:15:02.947Z,61.02
2023-09-14T12:17:31.669Z,58.96
2023-09-14T12:20:02.091Z,60.49
2023-09-14T12:22:33.265Z,58.72
2023-09-14T12:25:05.825Z,59.75
2023-09-14T12:27:35.003Z,60.93
2023-09-14T12:30:07.329Z,60.92
2023-09-14T12:32:39.824Z,61.32
2023-09-14T12:35:11.144Z,61.98
2023-09-14T12:37:38.945Z,62.57
2023-09-14T12:40:11.661Z,63.67
2023-09-14T12:42:40.702Z,63.59
2023-09-14T12:45:12.960Z,64.35
2023-09-14T12:47:42.486Z,63.43
2023-09-14T12:50:17.661Z,63.17
2023-09-14T12:52:46.085Z,63.30
2023-09-14T12:55:20.326Z,65.32
2023-09-14T12:57:48.769Z,64.41
2023-09-14T13:00:23.783Z,65.32
2023-09-14T13:02:52.018Z,64.44
2023-09-14T13:05:25.134Z,62.67
2023-09-14T13:07:54.309Z,65.33
2023-09-14T13:10:23.449Z,61.78
2023-09-14T13:13:15.512Z,61.22
2023-09-14T13:15:47.582Z,58.13
2023-09-14T13:18:19.482Z,60.21
2023-09-14T13:20:47.657Z,60.57
2023-09-14T13:23:17.308Z,60.11
2023-09-14T13:25:46.233Z,62.73
2023-09-14T13:28:12.787Z,61.36
2023-09-14T13:30:42.564Z,61.76
2023-09-14T13:33:09.206Z,59.76
2023-09-14T13:35:36.504Z,59.22
2023-09-14T13:38:04.261Z,63.94
2023-09-14T13:40:31.436Z,59.43
2023-09-14T13:42:59.650Z,59.08
2023-09-14T13:45:30.348Z,58.73
2023-09-14T13:47:57.905Z,56.74
2023-09-14T13:50:28.106Z,58.29
2023-09-14T13:53:00.163Z,59.02
2023-09-14T13:55:29.631Z,60.43
2023-09-14T13:57:56.264Z,62.84
2023-09-14T14:00:24.207Z,64.31
2023-09-14T14:02:55.775Z,64.84
2023-09-14T14:05:23.949Z,63.28
2023-09-14T14:07:50.541Z,64.22
2023-09-14T14:10:17.335Z,61.46
2023-09-14T14:12:48.668Z,61.58
2023-09-14T14:15:17.638Z,62.10
2023-09-14T14:17:44.205Z,62.08
2023-09-14T14:20:16.048Z,63.34
2023-09-14T14:22:45.122Z,61.30
2023-09-14T14:25:16.411Z,61.82
2023-09-14T14:27:43.800Z,60.89
2023-09-14T14:30:11.421Z,61.87
2023-09-14T14:32:38.151Z,62.57
2023-09-14T14:35:05.785Z,62.57
2023-09-14T14:37:32.383Z,63.83
2023-09-14T14:39:59.071Z,64.35
2023-09-14T14:42:25.796Z,64.26
2023-09-14T14:44:52.736Z,65.92
2023-09-14T14:47:20.212Z,63.92
2023-09-14T14:49:49.530Z,64.84
2023-09-14T14:52:19.236Z,66.61
2023-09-14T14:54:48.895Z,66.92
2023-09-14T14:57:16.019Z,68.09
2023-09-14T14:59:45.194Z,68.34
2023-09-14T15:02:11.770Z,65.66
2023-09-14T15:04:43.073Z,65.33
2023-09-14T15:07:13.730Z,61.83
2023-09-14T15:09:40.396Z,63.98
2023-09-14T15:12:09.931Z,65.12
2023-09-14T15:14:41.361Z,62.20
2023-09-14T15:17:10.222Z,62.64
2023-09-14T15:19:36.757Z,64.05
2023-09-14T15:22:05.806Z,62.54
2023-09-14T15:24:32.433Z,59.19
2023-09-14T15:27:00.611Z,59.78
2023-09-14T15:29:30.933Z,62.17
2023-09-14T15:32:01.916Z,59.56
2023-09-14T15:34:31.864Z,61.00
2023-09-14T15:37:01.098Z,59.08
2023-09-14T15:39:30.464Z,61.76
2023-09-14T15:41:58.297Z,60.70
2023-09-14T15:44:25.259Z,60.95
2023-09-14T15:46:54.223Z,62.86
2023-09-14T15:49:21.016Z,62.48
2023-09-14T15:51:51.687Z,62.51
2023-09-14T15:54:20.524Z,62.54
2023-09-14T15:56:47.047Z,62.96
2023-09-14T15:59:14.462Z,63.51
2023-09-14T16:01:41.421Z,62.04
2023-09-14T16:04:08.722Z,63.59
2023-09-14T16:06:35.533Z,63.99
2023-09-14T16:09:02.136Z,65.18
2023-09-14T16:11:31.344Z,66.46
2023-09-14T16:13:57.844Z,66.24
2023-09-14T16:16:26.268Z,66.46
2023-09-14T16:18:52.877Z,66.95
2023-09-14T16:21:25.052Z,69.52
2023-09-14T16:23:53.869Z,68.61
2023-09-14T16:26:22.734Z,68.92
2023-09-14T16:28:49.425Z,69.45
2023-09-14T16:31:16.448Z,69.11
2023-09-14T16:33:45.321Z,69.38
2023-09-14T16:36:14.587Z,69.72
2023-09-14T16:38:43.261Z,65.46
2023-09-14T16:41:14.956Z,69.93
2023-09-14T16:43:43.216Z,68.40
2023-09-14T16:46:10.102Z,69.50
2023-09-14T16:48:41.004Z,71.48
2023-09-14T16:51:11.052Z,73.18
2023-09-14T16:53:37.642Z,73.62
2023-09-14T16:56:06.861Z,72.67
2023-09-14T16:58:33.847Z,74.33
2023-09-14T17:01:03.941Z,75.73
2023-09-14T17:03:33.556Z,75.59
2023-09-14T17:06:00.596Z,75.27
2023-09-14T17:08:27.592Z,77.10
2023-09-14T17:10:55.300Z,77.54
2023-09-14T17:13:21.704Z,77.00
2023-09-14T17:15:48.485Z,78.02
2023-09-14T17:18:18.856Z,75.28
2023-09-14T17:20:55.122Z,75.71
2023-09-14T17:23:24.633Z,75.74
2023-09-14T17:25:54.794Z,77.66
2023-09-14T17:28:24.471Z,78.13
2023-09-14T17:30:59.192Z,78.96
2023-09-14T17:33:28.242Z,79.82
2023-09-14T17:35:54.876Z,79.98
2023-09-14T17:38:21.470Z,79.43
2023-09-14T17:40:48.481Z,77.87
2023-09-14T17:43:17.718Z,79.77
2023-09-14T17:45:48.672Z,79.66
2023-09-14T17:48:21.671Z,80.75
2023-09-14T17:50:58.266Z,80.88
2023-09-14T17:53:25.771Z,81.45
2023-09-14T17:55:52.473Z,81.82
2023-09-14T17:58:23.737Z,82.88
2023-09-14T18:00:52.667Z,83.39
2023-09-14T18:03:20.562Z,83.96
2023-09-14T18:05:56.421Z,84.60
2023-09-14T18:08:25.950Z,84.31
2023-09-14T18:10:57.779Z,85.12
2023-09-14T18:13:30.621Z,85.22
2023-09-14T18:15:57.649Z,85.51
2023-09-14T18:18:24.328Z,85.06
2023-09-14T18:20:52.550Z,85.57
2023-09-14T18:23:23.081Z,85.84
2023-09-14T18:26:00.192Z,86.17
2023-09-14T18:28:29.613Z,87.24
2023-09-14T18:31:09.066Z,87.71
2023-09-14T18:33:35.821Z,87.83
2023-09-14T18:36:06.625Z,88.65
2023-09-14T18:38:36.644Z,88.76
2023-09-14T18:41:07.047Z,88.42
2023-09-14T18:43:37.073Z,88.87
2023-09-14T18:46:03.880Z,88.93
2023-09-14T18:48:30.629Z,89.55
2023-09-14T18:51:06.399Z,89.41
2023-09-14T18:53:33.111Z,89.38
2023-09-14T18:56:00.560Z,89.48
2023-09-14T19:01:00.220Z,89.94
2023-09-14T19:03:28.046Z,90.01
2023-09-14T19:05:59.406Z,89.61
2023-09-14T19:08:26.714Z,90.24
2023-09-14T19:11:00.243Z,90.08
2023-09-14T19:13:29.246Z,90.29
2023-09-14T19:15:58.088Z,90.56
2023-09-14T19:18:31.698Z,90.70
2023-09-14T19:21:02.332Z,90.43
2023-09-14T19:23:33.911Z,91.09
2023-09-14T19:26:00.812Z,91.75
2023-09-14T19:28:28.864Z,92.03
2023-09-14T19:30:57.931Z,91.79
2023-09-14T19:33:28.396Z,92.04
2023-09-14T19:35:55.005Z,91.78
2023-09-14T19:38:22.685Z,91.83
2023-09-14T19:40:54.111Z,92.20
2023-09-14T19:43:24.206Z,92.58
2023-09-14T19:45:55.104Z,92.10
2023-09-14T19:48:21.893Z,92.21
2023-09-14T19:50:56.795Z,92.50
2023-09-14T19:53:39.472Z,92.32
2023-09-14T19:56:08.015Z,92.77
2023-09-14T19:58:35.785Z,93.42
2023-09-14T20:01:05.170Z,92.60
2023-09-14T20:03:32.668Z,93.26
2023-09-14T20:06:05.629Z,93.31
2023-09-14T20:08:35.269Z,93.33
2023-09-14T20:11:04.737Z,93.30
2023-09-14T20:13:39.177Z,93.21
2023-09-14T20:16:05.949Z,93.23
2023-09-14T20:18:32.747Z,93.44
2023-09-14T20:20:59.282Z,93.38
2023-09-14T20:23:25.935Z,93.59
2023-09-14T20:25:56.982Z,93.68
2023-09-14T20:28:27.312Z,93.86
2023-09-14T20:30:57.408Z,93.60
2023-09-14T20:33:26.240Z,93.78
2023-09-14T20:35:52.770Z,93.62
2023-09-14T20:38:23.725Z,93.46
2023-09-14T20:40:50.327Z,93.75
2023-09-14T20:43:21.658Z,93.96
2023-09-14T20:45:53.699Z,93.32
2023-09-14T20:48:20.317Z,94.01
2023-09-14T20:50:47.020Z,94.44
2023-09-14T20:53:13.587Z,94.48
2023-09-14T20:55:45.464Z,94.12
2023-09-14T20:58:13.645Z,94.24
2023-09-14T21:00:43.566Z,94.31
2023-09-14T21:03:13.725Z,94.16
2023-09-14T21:05:42.959Z,93.96
2023-09-14T21:08:14.475Z,93.99
2023-09-14T21:10:41.062Z,94.10
2023-09-14T21:13:08.793Z,93.42
2023-09-14T21:15:38.360Z,93.53
2023-09-14T21:18:05.665Z,94.04
2023-09-14T21:20:32.372Z,94.42
2023-09-14T21:22:59.389Z,94.58
2023-09-14T21:25:30.441Z,94.91
2023-09-14T21:27:59.260Z,95.15
2023-09-14T21:30:32.839Z,95.07
2023-09-14T21:32:59.425Z,95.12
2023-09-14T21:35:28.882Z,95.26
2023-09-14T21:37:55.407Z,95.25
2023-09-14T21:40:25.053Z,95.43
2023-09-14T21:42:51.568Z,95.66
2023-09-14T21:45:18.277Z,95.68
2023-09-14T21:47:45.715Z,95.72
2023-09-14T21:50:15.447Z,95.74
2023-09-14T21:52:44.772Z,95.73
2023-09-14T21:55:11.499Z,95.84
2023-09-14T21:57:38.060Z,95.63
2023-09-14T22:00:13.485Z,95.72
2023-09-14T22:02:41.217Z,95.44
2023-09-14T22:05:10.062Z,95.70
2023-09-14T22:07:36.656Z,95.51
2023-09-14T22:10:06.388Z,95.23
2023-09-14T22:12:35.895Z,94.90
2023-09-14T22:15:02.859Z,95.02
2023-09-14T22:17:31.712Z,95.20
2023-09-14T22:20:17.568Z,95.29
2023-09-14T22:22:51.450Z,95.21
2023-09-14T22:25:22.237Z,94.86
2023-09-14T22:27:49.405Z,95.25
2023-09-14T22:30:21.894Z,95.83
2023-09-14T22:32:49.160Z,95.61
2023-09-14T22:35:19.990Z,95.79
2023-09-14T22:37:51.755Z,96.25
2023-09-14T22:40:20.557Z,96.84
2023-09-14T22:42:52.645Z,97.14
2023-09-14T22:45:22.220Z,97.37
2023-09-14T22:47:56.711Z,97.76
2023-09-14T22:50:28.577Z,97.86
2023-09-14T22:53:04.782Z,98.05
2023-09-14T22:55:32.303Z,98.00
2023-09-14T22:57:59.005Z,98.03
2023-09-14T23:00:26.340Z,98.34
2023-09-14T23:02:53.182Z,98.02
2023-09-14T23:05:20.363Z,98.37
2023-09-14T23:07:48.050Z,98.54
2023-09-14T23:10:19.238Z,98.43
2023-09-14T23:12:49.989Z,98.52
2023-09-14T23:15:21.674Z,98.18
2023-09-14T23:17:48.808Z,97.98
2023-09-14T23:20:27.641Z,98.10
2023-09-14T23:22:56.870Z,97.94
2023-09-14T23:25:27.069Z,98.04
2023-09-14T23:27:53.885Z,98.04
2023-09-14T23:30:23.352Z,97.53
2023-09-14T23:32:59.576Z,97.64
2023-09-14T23:35:28.503Z,97.52
2023-09-14T23:37:56.310Z,97.10
2023-09-14T23:40:37.964Z,97.01
2023-09-14T23:43:11.911Z,97.07
2023-09-14T23:45:42.464Z,96.91
2023-09-14T23:48:13.602Z,96.90
2023-09-14T23:50:45.595Z,97.02
2023-09-14T23:53:16.393Z,97.26
2023-09-14T23:55:48.798Z,97.62
2023-09-14T23:58:17.677Z,97.48
